KBFL

Meadows Field Airport

Bakersfield, California, USA
KBFL 182328Z 1900/1924 VRB03KT P6SM FEW012 SCT100 FM190900 12002KT 2SM BR SKC FM191200 11002KT 1/2SM FG VV003 FM191900 23003KT 2SM BR OVC003 FM192000 28004KT 4SM HZ SCT250
Issued Valid From Valid To
Jan-18 @ 23:28 UTC
(3 hours ago)
Jan-19 @ 00:00 UTC
(2 hours ago)
Jan-20 @ 00:00 UTC
(in 22 hours)
Jan-19 @ 00:00 to Jan-19 @ 09:00
KBFL 182328Z 1900/1924 VRB03KT P6SM FEW012 SCT100
Wind Visibility Clouds
Variable at 3 knots Greater than 6 miles
  • Few at 1,200' AGL
  • Scattered at 10,000' AGL
From Jan-19 @ 09:00 to Jan-19 @ 12:00
FM190900 12002KT 2SM BR SKC
Wind Visibility Clouds Conditions
120° at 2 knots 2 miles
  • Clear skies
  • Mist
From Jan-19 @ 12:00 to Jan-19 @ 19:00
FM191200 11002KT 1/2SM FG VV003
Wind Visibility Clouds Conditions
110° at 2 knots 1/2 miles
  • Vertical visibility at 300' AGL
  • Fog
From Jan-19 @ 19:00 to Jan-19 @ 20:00
FM191900 23003KT 2SM BR OVC003
Wind Visibility Clouds Conditions
230° at 3 knots 2 miles
  • Overcast at 300' AGL
  • Mist
From Jan-19 @ 20:00 to Jan-20 @ 00:00
FM192000 28004KT 4SM HZ SCT250
Wind Visibility Clouds Conditions
280° at 4 knots 4 miles
  • Scattered at 25,000' AGL
  • Haze
KBFL 182328Z 1900/1924 VRB03KT P6SM FEW012 SCT100 FM190900 12002KT 2SM BR SKC FM191200 11002KT 1/2SM FG VV003 FM191900 23003KT 2SM BR OVC003 FM192000 28004KT 4SM HZ SCT250
Issued Jan-18 @ 23:28 UTC
(3 hours ago)
Valid From Jan-19 @ 00:00 UTC
(2 hours ago)
Valid To Jan-20 @ 00:00 UTC
(in 22 hours)
Jan-19 @ 00:00 - Jan-19 @ 09:00
Wind Visibility
Variable at 3 knots Greater than 6 miles
Clouds
  • Few at 1,200' AGL
  • Scattered at 10,000' AGL
From Jan-19 @ 09:00 - Jan-19 @ 12:00
Wind Visibility
120° at 2 knots 2 miles
Clouds
  • Clear skies
Conditions
  • Mist
From Jan-19 @ 12:00 - Jan-19 @ 19:00
Wind Visibility
110° at 2 knots 1/2 miles
Clouds
  • Vertical visibility at 300' AGL
Conditions
  • Fog
From Jan-19 @ 19:00 - Jan-19 @ 20:00
Wind Visibility
230° at 3 knots 2 miles
Clouds
  • Overcast at 300' AGL
Conditions
  • Mist
From Jan-19 @ 20:00 - Jan-20 @ 00:00
Wind Visibility
280° at 4 knots 4 miles
Clouds
  • Scattered at 25,000' AGL
Conditions
  • Haze